Новости –  Прошивки –  Каталог навигаторов –  Восстановление навигатора

Вернуться   Мир Автомобильных навигаторов > PNA / PND Устройства > Автомагнитолы
Регистрация ФайлыПравила форумаБан-лист Справка Календарь Поиск Сообщения за день Все разделы прочитаны

 
  


     


Nokia N1 - первый Android-планшет известной финской компании
Ответ
 
Опции темы
Старый 02.03.2014, 14:46   #1
turinec
Новичок
Доп. информация
По умолчанию Intro InCar CHR - 2 din (магнитолы НЕ на платформе i9/i10/D2280)

[Ссылки могут видеть только зарегистрированные пользователи. ]

Владельцы InCar CHR-7ххх - присоединяйтесь. Будем думать, что с ней можно сделать, а то пока одному страшновато.
[Ссылки могут видеть только зарегистрированные пользователи. ]

Все остальное по этой магнитоле.
Картинки



Характеристики
Характеристики отсюда [Ссылки могут видеть только зарегистрированные пользователи. ]

Параметры дисплея 7" сенсорный, широкоформатный 16:9 TFT LCD, высокого разрешения, 800 х 480 точек, 400 cd/m²
Встроенный GPS приемник, Навигационное ПО в комплекте на SD/MMC карте памяти Навител (лицензия)
Операционная система Windows CE 6.0
Возможность выхода в Интернет, отображение пробок на дороге опционально (модем GPS 3G)
Возможность подключения дополнительно фронтальной камеры и активации ее с дисплея есть
Подсветка кнопок изменяемая
Процессор ARM (с вентилятором для охлаждения)
Встроенный FM/AM тюнер есть, 30 станции предустановки
Удобный русифицированный пользовательский интерфейс есть
Выбор логотипа загрузки** есть
Поддержка CD/DVD без CD/DVD привода
Поддержка SD/USB есть
Поддержка Bluetooth, записная книжка контактов есть
Поддержка форматов файлов*** mp3, wma, wave, mpeg1, mpeg2, mpeg4, wmv, jpeg, gif, bmp
Штатное подключение к кнопкам руля**** есть
Возможность подключения дополнительного монитора есть
Подключение камеры заднего вида есть
TV-тюнер встроенный аналоговый SECAM
Аудио выходы на усилитель есть (модель CDA-4.100)
Отдельный выход на сабвуфер есть (модель INT-801SW)
Возможность подключения iPod/iPhone есть, кабель в комплекте
Пульт Д/У в комплекте


Видео обзор небольшой здесь
[Ссылки могут видеть только зарегистрированные пользователи. ]


PortTool Log v. 1, 0, 0, 23
PortTool Log v. 1, 0, 0, 23
PortTool execution path: \Storage Card\?????_W-CE\PortTool_v1.0.0.23\PortTool.exe
CPU: ARM rev.7
Path to navi: [ ]
USB: [Async/Flash card/CardReader]
UUID in About: [yes/no]
Internet: [yes/no]
RAM: total: 195 Mb, avail: 137 Mb
UUID: 16 byte: 00 00 00 00 00 00 00 00 - 00 00 00 00 00 00 00 0A (0000000000000000000000000000000A)
UUID check: 0
Screen: 800x480 16 bit
OS Version: 6
Battery percent: 0
wininet.dll: yes
OEM info: 'Shenzhen_Yecon_Industry' 48 byte: 53 00 68 00 65 00 6E 00 7A 00 68 00 65 00 6E 00 5F 00 59 00 65 00 63 00 6F 00 6E 00 5F 00 49 00 6E 00 64 00 75 00 73 00 74 00 72 00 79 00 00 00
THUMB: yes
MemAccess: Mapping - 126 ms malloc() - 125 ms Factor: 1 (ok)
FlashCards
name: Residentflash
name: DSK9:
Disk size: 2.93 Mb 3067904 bytes
flashID: none
Write/Read test: Ok
Mapping: Not enough free space

name: Residentflash3
name: DSK9:
Disk size: 4.92 Mb 5156864 bytes
flashID: none
Write/Read test: Ok
Mapping: Not enough free space

name: Residentflash2
name: DSK9:
Disk size: 50.24 Mb 52678656 bytes
flashID: none
Write/Read test: Ok
Mapping: Not enough free space

name: SDMMC
name: DSK1:
Disk size: 7376.00 Mb bytes
flashID: 44 41 41 33 41 45 36 38 00 00 . 32 37
flashID (for registration): 27DAA3AE6800
Write/Read test: Ok
Mapping: AVR Write: 388 KB/s
AVR Read: 0 KB/s
Mapping: Failed
Mapping time: 48 sec, 0 %

name: Storage Card
name: DSK2:
Disk size: 3804.00 Mb bytes
flashID: 30 30 30 30 30 30 30 41 00 00 . 31 31
flashID (for registration): 110000000A00
Write/Read test: Ok
Mapping: AVR Write: 599 KB/s
AVR Read: 0 KB/s
Mapping: Failed
Mapping time: 42 sec, 0 %

name: USBDisk
name: DSK5:
Disk size: 7629.14 Mb bytes
flashID: none
Write/Read test: Ok
Mapping: AVR Write: 371 KB/s
AVR Read: 0 KB/s
Mapping: Failed
Mapping time: 50 sec, 0 %

GPS:
$GPGGA,083714.000,5602.25775,N,09252.59933,E,1,8,1 .32,236.2,M,-35.5,M,,*7C
$GPGSA,A,3,31,23,25,14,12,01,32,20,,,,,2.07,1.32,1 .59*0A
$GPGSV,3,1,11,31,80,189,42,32,60,231,35,20,41,292, 43,25,40,064,48*D
72
$GPGSV,3,2,11,14,36,107,38,12,15,033,28,01,14,257, 40,23,12,286,25*71
$GPGSV,3,3,11,04,03,352,,29,02,093,,43,-99,000,*63
$GPRMC,083714.000,A,5602.25775,N,09252.59933,E,0.0 11,78.28,010314,,A*43
$D
GPVTG,78.28,T,,M,0.011,N,0.021,K,A*0B
$GPGGA,083715.000,5602.25775,N,09252.59933,E,1,8,1 .32,236.2,M,-35.5,M,,*7D
$GPGSA,A,3,31,23,25,14,12,01,32,20,,,,,2.07,1.32,1 .59*0A
$GPGSV,3,1,11,31,80,189,42,D
32,60,231,35,20,41,292,43,25,40,064,48*72
$GPGSV,3,2,11,14,36,107,38,12,15,033,28,01,14,257, 40,23,12,286,25*71
$GPGSV,3,3,11,04,03,352,,29,02,093,,43,-99,000,*63
$GPRMC,083715.000,A,5602.25775,N,09D
Port: COM1:
Rate: 57600

$GPGGA,083717.000,5602.25775,N,09252.59934,E,1,8,1 .32,236.2,M,-35.5,M,,*78
$GPGSA,A,3,31,23,25,14,12,01,32,20,,,,,2.07,1.32,1 .59*0A
$GPGSV,3,1,11,31,80,189,42,32,60,231,35,20,41,292, 43,25,40,064,48*D
72
$GPGSV,3,2,11,14,36,107,38,12,15,033,28,01,14,257, 40,23,12,286,25*71
$GPGSV,3,3,11,04,03,352,,29,02,093,,43,-99,000,*63
$GPRMC,083717.000,A,5602.25775,N,09252.59934,E,0.0 15,78.28,010314,,A*43
$D
GPVTG,78.28,T,,M,0.015,N,0.028,K,A*06
$GPGGA,083718.000,5602.25775,N,09252.59934,E,1,7,1 .36,236.2,M,-35.5,M,,*7C
$GPGSA,A,3,31,25,14,12,01,32,20,,,,,,2.15,1.36,1.6 7*01
$GPGSV,3,1,11,31,80,189,42,32D
,60,231,35,20,41,292,43,25,40,064,48*72
$GPGSV,3,2,11,14,36,107,38,12,15,033,28,01,14,257, 40,23,12,286,24*70
$GPGSV,3,3,11,04,03,352,,29,02,093,,45,-99,000,*65
$GPRMC,083718.000,A,5602.25775,N,0925D
Port: COM2:
Rate: 57600

$GPGGA,083724.000,5602.25773,N,09252.59936,E,1,8,1 .32,236.2,M,-35.5,M,,*7C
$GPGSA,A,3,31,23,25,14,12,01,32,20,,,,,2.07,1.32,1 .59*0A
$GPGSV,3,1,11,31,80,189,42,32,60,231,35,20,41,292, 43,25,40,064,48*D
$GPGGA,083730.000,5602.25773,N,09252.59939,E,1,8,1 .32,236.3,M,-35.5,M,,*77
$GPGSA,A,3,31,23,25,14,12,01,32,20,,,,,2.06,1.32,1 .59*0B
$GPGSV,3,1,11,31,80,189,42,32,60,231,34,20,41,292, 43,25,40,064,48*D
$GPGGA,083736.000,5602.25772,N,09252.59941,E,1,6,2 .11,236.2,M,-35.5,M,,*72
$GPGSA,A,3,31,25,14,01,32,20,,,,,,,4.35,2.11,3.81* 0A
$GPGSV,3,1,11,31,80,189,42,32,60,231,34,20,41,292, 44,25,40,064,48*74
D
$GPGGA,083737.000,5602.25771,N,09252.59941,E,1,8,1 .32,236.2,M,-35.5,M,,*7C
$GPGSA,A,3,31,23,25,14,12,01,32,20,,,,,2.06,1.32,1 .59*0B
$GPGSV,3,1,11,31,80,189,42,32,60,231,34,20,41,292, 44,25,40,064,48*D
74
$GPGSV,3,2,11,14,35,107,37,12,15,033,28,01,14,257, 41,23,13,286,27*7F
$GPGSV,3,3,11,04,03,352,,29,02,093,,49,-99,000,*69
$GPRMC,083737.000,A,5602.25771,N,09252.59941,E,0.0 05,78.28,010314,,A*46
$D
$GPGGA,083742.000,5602.25770,N,09252.59943,E,1,8,1 .32,236.2,M,-35.5,M,,*7D
$GPGSA,A,3,31,23,01,25,14,12,32,20,,,,,2.06,1.32,1 .58*0A
$GPGSV,3,1,11,31,80,188,42,32,60,231,34,20,41,292, 44,25,40,064,48*D
$GPGGA,083748.000,5602.25770,N,09252.59944,E,1,8,1 .59,236.2,M,-35.5,M,,*7D
$GPGSA,A,3,31,23,01,25,14,12,32,20,,,,,2.62,1.59,2 .08*03
$GPGSV,3,1,11,31,80,188,42,32,60,231,31,20,41,292, 44,25,40,064,48*D
$GPGGA,083754.000,5602.25769,N,09252.59944,E,1,8,1 .31,236.1,M,-35.5,M,,*75
$GPGSA,A,3,31,23,01,25,14,12,32,20,,,,,2.06,1.31,1 .58*09
$GPGSV,3,1,11,31,80,188,42,32,60,231,29,20,41,292, 45,25,40,064,48*D
ClearCommError() failed
ClearCommError() failed
ClearCommError() failed
ClearCommError() failed
ClearCommError() failed
ClearCommError() failed
String test: Ok
System date/time: 11:38:07 01.03.2014 (11:38:07, 3/1/2014


Смена часового пояса описана там http://4pna.com/showpost.php?p=391487&postcount=106
Прошивка http://4pna.com/showpost.php?p=425022&postcount=367
turinec вне форума  
7 пользователя(ей) сказали cпасибо:
Старый 26.05.2014, 20:05   #31
RAV-4
Аксакал
 
Аватар для RAV-4
Доп. информация
По умолчанию

Цитата:
Сообщение от pvl_mksv Посмотреть сообщение
Кто смотрит видео на сем девайсе? Что там по кодекам, а то звук есть, картинки нет.

...если речь идет о просмотре видеофайлов с флешки или с SD-карточки то в папку с проигрывателем нужно добавить кодеков,с теми что идут с завода как правило с флешек видео не показывает...
RAV-4 вне форума  
Старый 26.05.2014, 22:20   #32
aupopov
Новичок
Доп. информация
По умолчанию Проблемка с Bluetooth

Приветствую форумчане.
Прикупил магнитолу CHR-7120.
В принципе меня всё устраивает. Подключены кнопки подрулевого управления (Ford Fusion). Обновлен и настроен Navitel, радио, mp3, видео, даже интернет проверил через флеш-модем (Мегафон) – всё в порядке. Правда, пришлось замыкать перемычкой ближний свет, так как при включении габаритов, экран магнитолы уходит в «ночной режим» и мне не очень видно изображение на экране во время поездки солнечным днём.
Но, вот в чём проблема:
Одновременно с покупкой магнитолы, я приобрёл сотовый телефон – Nokia 225. Этот телефон только появился в продаже – есть свои плюсы и минусы, сейчас не об этом. Я попытался соединить телефон и магнитолу через Bluetooth. Телефон не обнаруживает ГУ. Проверил на других «чужих» телефонах – всё ловится, всё в порядке. Но, с моим телефоном – ну ни как.
Может причина в том, что разные версии Bluetooth (в телефоне – 3.0).
Может, кто подскажет – что бы такое придумать, что бы всё-таки подключить мой телефон к данному ГУ? Может есть способы колдовства, кроме «танца с бубном».
Кстати:
Закачал фильмак на флешку (USB 2.0), вставил в ГУ – всё хорошо, только вот лица «растянуты», т.е. экран растянут. Быстро нашел выход – нужно сконвертировать фильм в такой же формат, но с разрешением 800х480 (творил через Movavi Video Converter). Только вот при конвертировании, на выходе, фильм потерял звук. Тоже быстро решил эту проблему – при конвертировании, помимо нового размера, выбирал аудио-кодек-mp3. Ни в качестве звука, ни в качестве изображения – ни чего не потерялось.
Ну, может, кто-нибудь поможет мне с моей проблемой?
aupopov вне форума  
Пользователь сказал cпасибо:
Старый 26.05.2014, 23:15   #33
frog2050
Гуру
 
Аватар для frog2050
Доп. информация
По умолчанию

aupopov,
А в магнитоле нет кнопочки? что то типа - "Поиск Телефона"?
__________________
[Ссылки могут видеть только зарегистрированные пользователи. ]
Представьте что у вас дома есть DVD медиа плеер с выходом HDMI и есть комп, тоже с выходом HDMI и оба они подключены к телеку.
Так вот, скажите как ваш комп увидит флешку вставленную в DVD плеер, хотя телек и показывает содержимое вашей флешки и комп тоже показывает на телеке.
Может так легче понять, как устроен медиа комбайн в машине ?
Сейчас у меня Citroen C4L Sedan с разными магнитолами
Раздача читательских билетов - бесплатно !!!
За что раздаётся :
[Ссылки могут видеть только зарегистрированные пользователи. ]
frog2050 вне форума  
Пользователь сказал cпасибо:
Старый 27.05.2014, 02:27   #34
Maksimыch
Новичок
Доп. информация
По умолчанию

Подскажите пожалуйста! Магнитолка intro chr-7750, не читает флешки. При подключении вроде бы пишет "загрузка" потом выбрасывает обратно в меню. SD карточки видит, навигация работает, но открыть папки с музыкой не дает, тыкаешь на иконку SD, ничего не происходит. CD DVD работает нормально. Навигация тоже. С Навитела установил все последние обновления все работает как часы. Может ли быть проблема в прошивке?
Maksimыch вне форума  
Старый 27.05.2014, 08:31   #35
RAV-4
Аксакал
 
Аватар для RAV-4
Доп. информация
По умолчанию

Цитата:
Сообщение от Maksimыch Посмотреть сообщение
Магнитолка intro chr-7750, не читает флешки.

...а у неё вообще полноценный USB-вход есть?
RAV-4 вне форума  
Старый 27.05.2014, 10:26   #36
pvl_mksv
Новичок
Доп. информация
По умолчанию

(30) Проблема в получении доступа к файловой системе девайса. Еще не понял, как это сделать.
(31) Что, прямо из коробки показывало? Я уж как только не кодировал, вместо картинки предупреждение не смотреть кино на ходу, типа такого.
(32) Есть там такая кнопка, по иконке BT(почему-то зеленая) в крайне правой колонке, кажется, есть кнопка сопряжение. Ее жать и на телефоне жать поиск устройства, совместимость БТ "сверху-вниз" позволит поджключиться к магнитоле.
Вообще по мафону звонить прикольно .

Последний раз редактировалось pvl_mksv; 27.05.2014 в 10:27.. Причина: сплю еще...
pvl_mksv вне форума  
Пользователь сказал cпасибо:
Старый 27.05.2014, 10:47   #37
Maksimыch
Новичок
Доп. информация
По умолчанию

USB вход через кабель, на магнитоле микро USB, с другой стороны кабеля разъем под флешку. Был в комплекте.
[Ссылки могут видеть только зарегистрированные пользователи. ]
[Ссылки могут видеть только зарегистрированные пользователи. ]
Maksimыch вне форума  
Старый 27.05.2014, 11:01   #38
aupopov
Новичок
Доп. информация
По умолчанию Проблемка с Bluetooth

для frog2050:

Есть.
Когда нажимаешь иконку ВТ, входишь в раздел Bluetooth. ГУ автоматически начинает искать - Сопряжение...
Запускаю поиск активных устройств на телефоне. Через несколько секунд, телефон выдаёт - "не найдено устройства" - не видит ГУ.
Захожу в меню "настройка" на ГУ. Отключаю иконку "ВТ" и снова включаю. Запускаю на телефоне поиск устройств - то же самое - не видит.
Ситуация с "чужим телефоном":
Всё то же самое, только "чужак" находит ГУ сразу и просит PIN-код ввести. После ввода - сразу подключается. Я даже выходил из авто и уходил на расстояние. Телефон терял связь. Потом садился в авто и, телефон сразу подсоединялся к ГУ.
С моим телефоном, как не колдовал - ни как.
Может кто то сможет мне объяснить, может что-то поменять в Win CE.?
Допустим, я войду в ГУ, через направление навигатора - через тотал командер (изменю путь), допустим войду в regedit Win CE - а дальше?
Выручайте парни, не хочется дарить трубу жене или маме и, бежать в магазин за другой.
aupopov вне форума  
Пользователь сказал cпасибо:
Старый 27.05.2014, 11:50   #39
pvl_mksv
Новичок
Доп. информация
По умолчанию

Цитата:
Сообщение от aupopov Посмотреть сообщение
Допустим, я войду в ГУ, через направление навигатора - через тотал командер (изменю путь), допустим войду в regedit Win CE - а дальше?

Блин, интернет отучает думать, спасибо, дружище
pvl_mksv вне форума  
Старый 27.05.2014, 11:57   #40
frog2050
Гуру
 
Аватар для frog2050
Доп. информация
По умолчанию

Цитата:
Сообщение от aupopov Посмотреть сообщение
С моим телефоном, как не колдовал - ни как.

А с другой гарнитурой, ваш телефон связывается ?
Цитата:
Сообщение от aupopov Посмотреть сообщение
Может кто то сможет мне объяснить, может что-то поменять в Win CE.?

По этому поводу, прочтите мою подпись.
Иначе говоря, что мне настроить в телевизоре, чтоб сразу 12 серию фильма показывал DVD, после включения телека.
__________________
[Ссылки могут видеть только зарегистрированные пользователи. ]
Представьте что у вас дома есть DVD медиа плеер с выходом HDMI и есть комп, тоже с выходом HDMI и оба они подключены к телеку.
Так вот, скажите как ваш комп увидит флешку вставленную в DVD плеер, хотя телек и показывает содержимое вашей флешки и комп тоже показывает на телеке.
Может так легче понять, как устроен медиа комбайн в машине ?
Сейчас у меня Citroen C4L Sedan с разными магнитолами
Раздача читательских билетов - бесплатно !!!
За что раздаётся :
[Ссылки могут видеть только зарегистрированные пользователи. ]
frog2050 вне форума  
Старый 27.05.2014, 12:19   #41
aupopov
Новичок
Доп. информация
По умолчанию Проблемка с Bluetooth

для frog2050:
Про подпись, я понял уже давно. Про входы и выходы в твоей подписи - всё понятно.
Но вот технология Bluetooth - далеко не IN и OUT.

Мой телефон без проблем видит другие трубки и связывается с ними.

Сейчас поймал парнишку с Samsung Galaxy Note 2. В его трубе Bluetooth 4.0.
Samsung без проблем нашел ГУ и ГУ без проблем соединилось с данным девайсом.
Вот тут меня окончательно "замкнуло".
Может, всё-таки, дело ни в ГУ, а в моей трубе - Nokia 225 ?
Что скажите парни ?
aupopov вне форума  
Пользователь сказал cпасибо:
Старый 27.05.2014, 12:40   #42
frog2050
Гуру
 
Аватар для frog2050
Доп. информация
По умолчанию

Цитата:
Сообщение от aupopov Посмотреть сообщение
Что скажите парни ?

повторяю вопрос:
Цитата:
Сообщение от frog2050 Посмотреть сообщение
А с другой гарнитурой, ваш телефон связывается ?

__________________
[Ссылки могут видеть только зарегистрированные пользователи. ]
Представьте что у вас дома есть DVD медиа плеер с выходом HDMI и есть комп, тоже с выходом HDMI и оба они подключены к телеку.
Так вот, скажите как ваш комп увидит флешку вставленную в DVD плеер, хотя телек и показывает содержимое вашей флешки и комп тоже показывает на телеке.
Может так легче понять, как устроен медиа комбайн в машине ?
Сейчас у меня Citroen C4L Sedan с разными магнитолами
Раздача читательских билетов - бесплатно !!!
За что раздаётся :
[Ссылки могут видеть только зарегистрированные пользователи. ]
frog2050 вне форума  
Старый 27.05.2014, 12:47   #43
aupopov
Новичок
Доп. информация
По умолчанию Проблемка с Bluetooth

Всё, парни, разобрался.

Моя труба (Nokia 225) никогда не подсоединится к incar-7120.
Дело в том, что в трубе Bluetooth работает только по профилям передача телефонной книги и передача файлов с флешки.
ГУ подсоединяется с трубой по профилям: гарнитура громкой связи, мини-гарнитура, распространение аудио и т.д.
Внимательно выбирайте телефон, не лохонитесь, как я.
Придётся трубу дарить жене или маме.

Вопрос закрыт. Всем спасибо.
aupopov вне форума  
Старый 27.05.2014, 15:33   #44
pvl_mksv
Новичок
Доп. информация
По умолчанию

aupopov, а как насчет видео, все-таки? Показывало из коробки сразу или после телодвижений?
pvl_mksv вне форума  
Старый 27.05.2014, 15:44   #45
aupopov
Новичок
Доп. информация
По умолчанию

У меня показало сразу.
Флешка на 16 гектар - записал три фильма (в среднем 1,5 гектара каждый) - вставил в ГУ - перешёл на USB - перешёл на видео (внизу закладки) - и всё.
Только вот формат изображения - смотри выше моё сообщение.
На микро-флешке - всё также.
Если у тебя нет звука, а фильм показывает - это ещё не значит "выкинуть ГУ". Я обычно проверяю фильмак по GOM-плееру. Если звука в нём нет или этот плеер просит скачать какой-нибудь аудио-кодек - то это проблема с фильмаком.
В моей ситуации, после конвертирования на формат 800х480 и с аудио-кодеком AC3 - получилось, что в GOM-плеере не было звука, а в стандартном проигрывателе винды - есть звук. Но ГУ начала показывать фильм без звука. Поэтому, я переконвертировал изначальный файл фильма с аудио-кодеком MP3 (напоминаю - Movavi Video Converter).
aupopov вне форума  
Ответ

Опции темы



Текущее время: 22:39. Часовой пояс GMT +4.


Powered by vBulletin® Version 3.8.9
Copyright ©2000 - 2017, Jelsoft Enterprises Ltd. Перевод: zCarot

Копирайты